Time;durP1;ratioP1;P1;durP2;ratioP2;P2;SDS_P1;SDS_P2;PMS_P1;PMS_P2;Temp;Humidity;BMP_temperature;BMP_pressure;BME280_temperature;BME280_humidity;BME280_pressure;Samples;Min_cycle;Max_cycle;Signal;HPM_P1;HPM_P2
2023/07/02 00:01:14;;;;;;;6.40;2.35;;;;;;;17.46;100.00;99095.88;12208023;19;20010;-79
2023/07/02 00:05:17;;;;;;;3.47;2.10;;;;;;;17.45;100.00;99094.25;12241767;19;20010;-79
2023/07/02 00:09:20;;;;;;;5.78;1.92;;;;;;;17.45;100.00;99099.81;12244620;19;20025;-78
2023/07/02 00:13:22;;;;;;;4.80;2.23;;;;;;;17.44;100.00;99096.22;12204243;19;20452;-79
2023/07/02 00:17:24;;;;;;;5.83;1.87;;;;;;;17.42;100.00;99076.19;12217382;19;20010;-79
2023/07/02 00:21:27;;;;;;;3.13;1.88;;;;;;;17.40;100.00;99092.44;12212201;19;20261;-79
2023/07/02 00:25:30;;;;;;;7.38;2.30;;;;;;;17.39;100.00;99090.75;12189718;19;20007;-79
2023/07/02 00:29:31;;;;;;;2.07;1.57;;;;;;;17.35;100.00;99097.28;12211592;19;20023;-79
2023/07/02 00:33:33;;;;;;;4.03;1.90;;;;;;;17.30;100.00;99110.16;12203705;19;20031;-80
2023/07/02 00:37:35;;;;;;;3.75;1.70;;;;;;;17.22;100.00;99110.06;12215458;19;20358;-79
2023/07/02 00:41:37;;;;;;;2.20;1.48;;;;;;;17.20;100.00;99120.72;12212216;19;20002;-79
2023/07/02 00:45:39;;;;;;;4.47;2.13;;;;;;;17.10;100.00;99124.50;12189945;19;20011;-78
2023/07/02 00:49:41;;;;;;;6.47;2.05;;;;;;;16.99;100.00;99125.88;12213187;19;20006;-78
2023/07/02 00:53:48;;;;;;;3.13;1.80;;;;;;;16.85;100.00;99125.84;12213396;19;20019;-79
2023/07/02 00:57:50;;;;;;;4.07;1.92;;;;;;;16.66;100.00;99127.84;12190522;19;20082;-79
2023/07/02 01:01:51;;;;;;;4.47;2.13;;;;;;;16.49;100.00;99122.88;12212826;19;20011;-80
2023/07/02 01:05:54;;;;;;;5.07;2.13;;;;;;;16.34;100.00;99133.16;12210277;19;20475;-79
2023/07/02 01:09:56;;;;;;;6.90;2.00;;;;;;;16.24;100.00;99129.69;12191375;19;20354;-79
2023/07/02 01:14:04;;;;;;;3.83;2.00;;;;;;;16.13;100.00;99120.72;12211557;19;20007;-79
2023/07/02 01:18:07;;;;;;;3.90;1.95;;;;;;;16.05;100.00;99122.22;12215655;19;20078;-79
2023/07/02 01:22:10;;;;;;;3.17;1.98;;;;;;;15.98;100.00;99115.44;12190031;19;20030;-79
2023/07/02 01:26:12;;;;;;;4.22;1.90;;;;;;;15.93;100.00;99119.91;12211284;19;20014;-79
2023/07/02 01:30:14;;;;;;;4.07;2.45;;;;;;;15.88;100.00;99114.47;12209921;19;20544;-78
2023/07/02 01:34:16;;;;;;;4.43;1.98;;;;;;;15.86;100.00;99111.16;12189459;19;20035;-79
2023/07/02 01:38:18;;;;;;;4.72;2.45;;;;;;;15.81;100.00;99115.97;12211061;19;20003;-79
2023/07/02 01:42:20;;;;;;;4.05;2.20;;;;;;;15.74;100.00;99108.00;12210239;19;20731;-79
2023/07/02 01:46:22;;;;;;;4.35;2.10;;;;;;;15.69;100.00;99122.78;12187824;19;20015;-79
2023/07/02 01:50:23;;;;;;;4.07;2.00;;;;;;;15.63;100.00;99135.06;12201917;19;20011;-79
2023/07/02 01:54:27;;;;;;;3.00;1.83;;;;;;;15.57;100.00;99132.66;12209806;19;20002;-79
2023/07/02 01:58:29;;;;;;;4.15;1.70;;;;;;;15.49;100.00;99126.63;12188958;19;20020;-79
2023/07/02 02:02:31;;;;;;;6.03;2.20;;;;;;;15.41;100.00;99126.50;12210807;19;20003;-79
2023/07/02 02:06:33;;;;;;;5.53;2.70;;;;;;;15.34;100.00;99129.63;12206270;19;20351;-79
2023/07/02 02:10:35;;;;;;;2.88;1.98;;;;;;;15.27;100.00;99126.41;12211784;19;20023;-80
2023/07/02 02:14:37;;;;;;;4.93;2.33;;;;;;;15.18;100.00;99131.78;12209494;19;20003;-80
2023/07/02 02:18:39;;;;;;;3.40;2.08;;;;;;;15.09;100.00;99135.53;12199889;19;20002;-80
2023/07/02 02:22:40;;;;;;;5.07;2.30;;;;;;;15.03;100.00;99141.13;12220125;19;20477;-79
2023/07/02 02:26:42;;;;;;;4.95;2.42;;;;;;;15.01;100.00;99145.31;12219715;19;20019;-79
2023/07/02 02:30:44;;;;;;;7.15;2.72;;;;;;;14.99;100.00;99142.84;12200961;19;20497;-79
2023/07/02 02:34:47;;;;;;;6.03;2.92;;;;;;;14.94;100.00;99145.69;12218356;19;20082;-79
2023/07/02 02:38:49;;;;;;;9.77;3.30;;;;;;;14.87;100.00;99136.84;12222931;19;20007;-79
2023/07/02 02:42:51;;;;;;;7.83;3.67;;;;;;;14.82;100.00;99139.72;12192917;19;20470;-79
2023/07/02 02:52:25;;;;;;;9.13;3.65;;;;;;;14.82;100.00;99128.63;12192671;19;20018;-79
2023/07/02 02:56:55;;;;;;;10.18;3.88;;;;;;;14.82;100.00;99146.09;12212663;19;20017;-79
2023/07/02 03:01:51;;;;;;;9.68;3.67;;;;;;;14.86;100.00;99143.53;12189987;19;20019;-79
2023/07/02 03:06:18;;;;;;;7.47;3.45;;;;;;;14.85;100.00;99141.06;12217044;19;20035;-78
2023/07/02 03:15:24;;;;;;;9.95;4.85;;;;;;;14.88;100.00;99141.31;12109791;19;2004352;-80
2023/07/02 03:19:26;;;;;;;8.23;3.70;;;;;;;14.84;100.00;99147.72;12196061;19;20019;-80
2023/07/02 03:23:52;;;;;;;;;;;;;;;;;;;;;
2023/07/02 03:28:33;;;;;;;7.50;3.85;;;;;;;14.84;100.00;99162.41;12193406;19;20666;-79
2023/07/02 03:32:55;;;;;;;7.60;3.72;;;;;;;14.77;100.00;99160.00;12217815;19;20031;-79
2023/07/02 03:37:08;;;;;;;6.70;3.58;;;;;;;14.69;100.00;99159.81;12193271;19;20108;-79
2023/07/02 03:52:25;;;;;;;11.00;4.20;;;;;;;14.63;100.00;99175.66;12212192;19;20007;-79
2023/07/02 03:57:40;;;;;;;7.30;4.30;;;;;;;14.65;100.00;99178.16;12206607;19;20040;-79
2023/07/02 04:02:21;;;;;;;7.80;4.22;;;;;;;14.72;100.00;99189.72;12214406;19;20032;-78
2023/07/02 04:18:04;;;;;;;11.38;4.70;;;;;;;15.18;100.00;99211.44;12216246;19;20002;-79
2023/07/02 04:27:03;;;;;;;12.85;5.90;;;;;;;15.48;100.00;99213.03;12215445;19;20368;-78
2023/07/02 04:36:43;;;;;;;10.15;4.95;;;;;;;15.84;100.00;99218.97;12082057;19;2004528;-79
2023/07/02 04:41:01;;;;;;;12.40;4.72;;;;;;;16.00;100.00;99227.91;12208765;19;20006;-79
2023/07/02 04:45:05;;;;;;;8.43;4.32;;;;;;;16.09;100.00;99216.94;12209722;19;20527;-79
2023/07/02 04:49:13;;;;;;;10.45;4.50;;;;;;;16.13;100.00;99232.72;12208491;19;20389;-79
2023/07/02 04:58:06;;;;;;;10.57;4.53;;;;;;;16.45;100.00;99233.06;12190453;19;20015;-79
2023/07/02 05:02:08;;;;;;;11.07;5.03;;;;;;;16.60;100.00;99235.63;12211773;19;20014;-79
2023/07/02 05:12:03;;;;;;;9.45;4.75;;;;;;;16.82;100.00;99240.53;12210798;19;20788;-79
2023/07/02 05:16:28;;;;;;;12.00;5.00;;;;;;;16.90;99.89;99244.59;12182879;19;20011;-79
2023/07/02 05:20:38;;;;;;;11.60;5.17;;;;;;;16.98;99.47;99257.78;12209760;19;20030;-79
2023/07/02 05:25:06;;;;;;;13.60;5.28;;;;;;;17.05;97.29;99252.66;12208541;19;20384;-79
2023/07/02 05:29:38;;;;;;;12.50;5.13;;;;;;;17.10;97.34;99266.47;12211874;19;20087;-79
2023/07/02 05:34:30;;;;;;;10.35;5.28;;;;;;;17.30;96.72;99259.69;12206531;19;20039;-79
2023/07/02 05:38:34;;;;;;;10.05;5.50;;;;;;;17.29;94.64;99258.06;12237835;19;20014;-79
2023/07/02 05:42:50;;;;;;;11.48;5.82;;;;;;;17.32;94.77;99263.00;12232397;19;20011;-79
2023/07/02 05:46:52;;;;;;;;;;;;;;;17.30;94.23;99259.69;12211179;19;20007;-79
2023/07/02 05:51:36;;;;;;;10.30;5.55;;;;;;;17.33;94.23;99263.84;12206027;19;19915;-79
2023/07/02 05:56:26;;;;;;;11.50;5.13;;;;;;;17.42;94.42;99267.56;12185519;19;20007;-78
2023/07/02 06:00:32;;;;;;;12.35;5.32;;;;;;;17.45;93.33;99269.72;12206893;19;20011;-80
2023/07/02 06:09:41;;;;;;;13.35;5.30;;;;;;;17.47;93.90;99282.22;12190221;19;20017;-80
2023/07/02 06:13:43;;;;;;;11.15;5.32;;;;;;;17.56;93.37;99285.09;12204398;19;20011;-79
2023/07/02 06:17:45;;;;;;;12.23;5.37;;;;;;;17.63;93.33;99291.06;12210797;19;20013;-79
2023/07/02 06:21:47;;;;;;;12.80;6.73;;;;;;;17.76;92.11;99290.25;12187254;19;20015;-78
2023/07/02 06:25:51;;;;;;;16.33;6.45;;;;;;;18.04;90.73;99295.84;12208024;19;20132;-79
2023/07/02 06:29:53;;;;;;;11.95;6.82;;;;;;;18.21;89.01;99303.56;12210891;19;20457;-80
2023/07/02 06:33:55;;;;;;;16.48;6.75;;;;;;;18.32;88.03;99304.16;12189390;19;20014;-79
2023/07/02 06:37:57;;;;;;;15.27;7.23;;;;;;;18.39;87.47;99296.19;12212165;19;20099;-78
2023/07/02 06:41:59;;;;;;;15.13;7.20;;;;;;;18.47;86.93;99297.38;12203619;19;20292;-78
2023/07/02 06:46:04;;;;;;;17.08;6.45;;;;;;;18.61;85.04;99307.38;12173681;19;20017;-78
2023/07/02 06:50:06;;;;;;;16.20;7.45;;;;;;;18.65;84.14;99302.00;12171212;19;20478;-79
2023/07/02 06:54:08;;;;;;;13.93;6.95;;;;;;;18.90;85.04;99300.56;12204796;19;20441;-78
2023/07/02 06:58:11;;;;;;;13.35;7.18;;;;;;;19.22;82.74;99302.25;12184274;19;20011;-78
2023/07/02 07:02:12;;;;;;;18.52;7.60;;;;;;;19.56;80.12;99298.81;12212414;19;20010;-78
2023/07/02 07:06:15;;;;;;;19.25;7.22;;;;;;;19.81;79.53;99296.50;12223286;19;20010;-78
2023/07/02 07:10:17;;;;;;;18.60;8.13;;;;;;;20.04;77.08;99291.59;12200814;19;20014;-78
2023/07/02 07:14:19;;;;;;;14.10;8.25;;;;;;;20.02;75.33;99296.72;12220837;19;20011;-78
2023/07/02 07:18:21;;;;;;;14.18;7.85;;;;;;;20.02;74.36;99303.13;12226159;19;20015;-79
2023/07/02 07:22:23;;;;;;;17.30;7.70;;;;;;;20.19;73.92;99307.09;12199662;19;20018;-78
2023/07/02 07:26:25;;;;;;;15.00;8.27;;;;;;;20.32;70.71;99297.75;12220947;19;20461;-78
2023/07/02 07:30:26;;;;;;;20.15;9.18;;;;;;;20.27;70.57;99301.50;12221858;19;20014;-79
2023/07/02 07:34:28;;;;;;;17.77;8.40;;;;;;;20.25;70.10;99300.19;12200444;19;20019;-78
2023/07/02 07:38:30;;;;;;;16.02;8.00;;;;;;;20.34;70.80;99298.22;12223678;19;20022;-78
2023/07/02 07:42:32;;;;;;;18.38;9.00;;;;;;;20.69;69.03;99292.69;12222311;19;20010;-78
2023/07/02 07:46:34;;;;;;;18.03;8.90;;;;;;;21.00;63.95;99302.88;12198433;19;20014;-79
2023/07/02 07:50:36;;;;;;;19.13;8.98;;;;;;;21.09;63.68;99298.91;12220785;19;20460;-78
2023/07/02 07:54:38;;;;;;;16.85;7.93;;;;;;;21.17;62.05;99298.06;12199303;19;20054;-79
2023/07/02 07:58:40;;;;;;;18.35;9.13;;;;;;;21.16;62.22;99298.41;12217631;19;20339;-79
2023/07/02 08:02:41;;;;;;;18.93;8.47;;;;;;;21.10;61.19;99291.31;12217527;19;20019;-79
2023/07/02 08:06:43;;;;;;;21.92;9.35;;;;;;;21.04;61.94;99301.88;12195850;19;20012;-79
2023/07/02 08:10:48;;;;;;;16.75;9.70;;;;;;;20.84;59.91;99291.34;12215459;19;20011;-78
2023/07/02 08:14:51;;;;;;;16.60;8.65;;;;;;;20.79;60.29;99294.31;12206822;19;20003;-78
2023/07/02 08:18:53;;;;;;;19.48;9.63;;;;;;;20.84;59.93;99292.19;12194410;19;20007;-79
2023/07/02 08:22:54;;;;;;;16.20;8.63;;;;;;;21.43;57.97;99287.97;12217982;19;20023;-79
2023/07/02 08:26:57;;;;;;;16.88;8.35;;;;;;;21.90;56.24;99294.38;12215882;19;20018;-78
2023/07/02 08:30:59;;;;;;;15.15;8.25;;;;;;;21.81;56.26;99294.41;12200976;19;20014;-79
2023/07/02 08:35:02;;;;;;;13.50;7.78;;;;;;;21.75;56.59;99297.75;12218069;19;20018;-78
2023/07/02 08:39:04;;;;;;;18.60;8.30;;;;;;;21.85;54.15;99305.78;12221012;19;20022;-78
2023/07/02 08:43:07;;;;;;;;;;;;;;;22.11;52.99;99302.00;12190946;19;20002;-79
2023/07/02 08:47:10;;;;;;;14.32;7.78;;;;;;;22.79;50.66;99287.84;12219248;19;19914;-78
2023/07/02 08:51:12;;;;;;;15.90;8.23;;;;;;;23.17;49.30;99308.16;12219858;19;20010;-79
2023/07/02 08:55:14;;;;;;;13.17;7.63;;;;;;;22.96;47.86;99299.78;12196596;19;20007;-78
2023/07/02 08:59:16;;;;;;;;;;;;;;;22.83;47.14;99300.03;12218380;19;20007;-78
2023/07/02 09:03:18;;;;;;;12.68;7.10;;;;;;;22.69;48.30;99301.09;12212249;19;19974;-78
2023/07/02 09:07:20;;;;;;;12.77;7.07;;;;;;;22.89;49.08;99307.88;12197342;19;20097;-78
2023/07/02 09:11:22;;;;;;;15.17;7.87;;;;;;;23.45;46.93;99299.09;12219096;19;20020;-78
2023/07/02 09:15:24;;;;;;;14.43;7.43;;;;;;;23.32;46.23;99317.06;12215777;19;20014;-80
2023/07/02 09:19:26;;;;;;;;;;;;;;;22.97;45.72;99309.00;12201263;19;20010;-80
2023/07/02 09:23:38;;;;;;;10.93;6.60;;;;;;;23.06;44.07;99315.38;12220950;19;19927;-79
2023/07/02 09:27:41;;;;;;;14.70;7.20;;;;;;;23.49;44.59;99316.06;12211516;19;20010;-79
2023/07/02 09:31:46;;;;;;;15.65;7.10;;;;;;;23.98;43.64;99319.00;12243177;19;20002;-80
2023/07/02 09:36:11;;;;;;;11.27;6.50;;;;;;;24.17;43.01;99321.22;12245183;19;20017;-79
2023/07/02 09:40:13;;;;;;;13.38;7.53;;;;;;;23.90;42.68;99325.53;12218245;19;20017;-80
2023/07/02 09:44:15;;;;;;;13.27;7.57;;;;;;;23.59;43.10;99336.16;12225514;19;20014;-79
2023/07/02 09:48:17;;;;;;;14.75;8.13;;;;;;;23.40;43.97;99325.41;12217742;19;20007;-79
2023/07/02 09:52:19;;;;;;;15.63;8.25;;;;;;;23.40;44.73;99325.41;12203024;19;20035;-78
2023/07/02 09:56:21;;;;;;;16.38;9.30;;;;;;;23.58;44.07;99331.66;12215009;19;20018;-79
2023/07/02 10:00:23;;;;;;;18.33;9.30;;;;;;;23.54;43.51;99319.50;12213224;19;20462;-78
2023/07/02 10:04:25;;;;;;;17.00;9.23;;;;;;;23.61;43.12;99308.47;12190066;19;20512;-78
2023/07/02 10:08:30;;;;;;;18.88;10.10;;;;;;;23.40;43.83;99318.97;12218751;19;20493;-79
2023/07/02 10:12:33;;;;;;;17.13;9.93;;;;;;;22.94;43.76;99326.53;12221960;19;20011;-78
2023/07/02 10:16:48;;;;;;;13.65;8.93;;;;;;;22.65;44.66;99327.44;12196761;19;20101;-79
2023/07/02 10:20:50;;;;;;;17.48;9.30;;;;;;;22.92;45.44;99321.25;12217210;19;20006;-79
2023/07/02 10:24:54;;;;;;;17.17;9.48;;;;;;;23.47;43.68;99330.50;12194933;19;20027;-79
2023/07/02 10:28:57;;;;;;;15.98;8.82;;;;;;;23.60;43.58;99311.66;12217955;19;20007;-79
2023/07/02 10:33:16;;;;;;;19.42;9.57;;;;;;;23.52;42.88;99319.00;12216323;19;20006;-79
2023/07/02 10:37:19;;;;;;;20.25;10.57;;;;;;;23.64;43.04;99321.03;12203990;19;20010;-79
2023/07/02 10:41:27;;;;;;;16.02;9.73;;;;;;;23.94;42.34;99318.03;12230980;19;20472;-79
2023/07/02 10:45:33;;;;;;;17.50;9.57;;;;;;;24.74;40.95;99311.75;12230468;19;20015;-79
2023/07/02 10:49:35;;;;;;;14.68;8.95;;;;;;;24.82;40.34;99313.59;12211984;19;20006;-79
2023/07/02 10:53:37;;;;;;;18.77;10.32;;;;;;;24.67;38.85;99325.63;12231807;19;20144;-80
2023/07/02 10:57:39;;;;;;;16.70;9.57;;;;;;;25.66;38.48;99315.53;12216302;19;20017;-79
2023/07/02 11:01:43;;;;;;;16.98;9.90;;;;;;;26.22;35.83;99312.53;12227719;19;20006;-80
2023/07/02 11:05:46;;;;;;;16.63;9.93;;;;;;;26.00;35.63;99311.22;12229631;19;20797;-80
2023/07/02 11:09:52;;;;;;;17.75;10.20;;;;;;;26.08;36.20;99303.72;12208732;19;20806;-81
2023/07/02 11:13:54;;;;;;;18.20;10.05;;;;;;;26.31;35.33;99301.88;12233483;19;20014;-81
2023/07/02 11:17:56;;;;;;;21.27;10.32;;;;;;;26.83;34.74;99305.47;12231389;19;20021;-81
2023/07/02 11:21:59;;;;;;;20.90;10.85;;;;;;;27.25;32.96;99310.41;12210905;19;20018;-79
2023/07/02 11:26:02;;;;;;;;;;;;;;;27.46;33.83;99298.69;12225264;19;20010;-79
2023/07/02 11:30:06;;;;;;;19.75;10.68;;;;;;;27.36;33.08;99305.75;12229990;19;20302;-81
2023/07/02 11:34:12;;;;;;;21.95;11.27;;;;;;;27.30;33.50;99312.09;12207788;19;20003;-78
2023/07/02 11:38:14;;;;;;;20.60;10.93;;;;;;;27.33;33.13;99303.66;12228773;19;20438;-79
2023/07/02 11:42:16;;;;;;;19.92;11.10;;;;;;;26.90;33.35;99305.63;12230322;19;20014;-79
2023/07/02 11:46:18;;;;;;;19.55;9.90;;;;;;;26.54;33.53;99318.16;12204270;19;20820;-78
2023/07/02 11:50:20;;;;;;;21.63;11.70;;;;;;;25.97;34.92;99316.75;12228762;19;20031;-80
2023/07/02 11:54:27;;;;;;;21.67;11.15;;;;;;;25.53;34.88;99316.81;12226418;19;20035;-81
2023/07/02 11:58:29;;;;;;;19.88;11.80;;;;;;;25.73;34.70;99310.09;12211790;19;20438;-78
2023/07/02 12:02:30;;;;;;;19.67;11.13;;;;;;;26.65;33.90;99304.25;12225378;19;20024;-79
2023/07/02 12:06:33;;;;;;;19.38;10.45;;;;;;;26.97;33.44;99302.13;12227561;19;20006;-79
2023/07/02 12:10:36;;;;;;;23.83;11.32;;;;;;;27.37;32.84;99304.56;12208006;19;20015;-77
2023/07/02 12:14:43;;;;;;;18.33;11.20;;;;;;;27.35;32.20;99306.13;12232661;19;20010;-79
2023/07/02 12:18:45;;;;;;;20.92;11.27;;;;;;;26.72;33.13;99310.09;12208343;19;20011;-79
2023/07/02 12:22:46;;;;;;;20.50;10.93;;;;;;;26.27;34.35;99312.28;12223470;19;20018;-78
2023/07/02 12:26:48;;;;;;;22.00;11.68;;;;;;;26.34;34.03;99314.44;12227464;19;20010;-77
2023/07/02 12:30:50;;;;;;;22.63;13.05;;;;;;;27.06;33.75;99316.84;12204154;19;20014;-79
2023/07/02 12:34:52;;;;;;;18.33;12.23;;;;;;;27.93;32.37;99305.97;12226038;19;20011;-78
2023/07/02 12:38:54;;;;;;;18.20;10.80;;;;;;;28.09;30.99;99312.34;12219286;19;19999;-80
2023/07/02 12:42:56;;;;;;;21.10;12.05;;;;;;;27.71;31.91;99308.41;12196920;19;20408;-80
2023/07/02 12:46:58;;;;;;;22.42;12.77;;;;;;;26.78;32.80;99320.72;12214530;19;20014;-80
2023/07/02 12:51:00;;;;;;;21.70;12.65;;;;;;;26.26;33.24;99321.91;12216226;19;20094;-78
2023/07/02 12:55:02;;;;;;;20.80;12.20;;;;;;;26.13;33.82;99320.41;12190067;19;20038;-78
2023/07/02 12:59:04;;;;;;;;;;;;;;;26.06;33.93;99326.69;12214994;19;20011;-79
2023/07/02 13:03:10;;;;;;;24.80;12.20;;;;;;;26.25;34.03;99319.47;12212808;19;19920;-79
2023/07/02 13:07:12;;;;;;;19.58;11.82;;;;;;;27.62;32.05;99321.19;12191451;19;20003;-78
2023/07/02 13:11:14;;;;;;;21.55;11.65;;;;;;;28.83;30.14;99328.03;12214100;19;20079;-78
2023/07/02 13:15:16;;;;;;;;;;;;;;;29.74;29.23;99312.47;12213143;19;20007;-79
2023/07/02 13:19:18;;;;;;;21.83;12.10;;;;;;;29.13;29.76;99332.91;12192418;19;19920;-79
2023/07/02 13:23:19;;;;;;;21.88;12.57;;;;;;;28.10;31.05;99347.13;12214534;19;20019;-80
2023/07/02 13:27:21;;;;;;;20.63;12.20;;;;;;;28.04;31.41;99338.13;12215379;19;20017;-79
2023/07/02 13:31:24;;;;;;;18.90;11.77;;;;;;;29.59;30.08;99329.75;12193641;19;20356;-78
2023/07/02 13:35:25;;;;;;;19.15;12.20;;;;;;;30.66;28.57;99336.34;12212516;19;20089;-80
2023/07/02 13:39:27;;;;;;;22.27;13.48;;;;;;;30.10;28.38;99326.19;12213692;19;20007;-77
2023/07/02 13:43:29;;;;;;;21.27;12.23;;;;;;;29.50;29.43;99328.03;12191423;19;20011;-78
2023/07/02 13:47:31;;;;;;;23.98;12.70;;;;;;;30.86;26.90;99332.03;12213482;19;20081;-80
2023/07/02 13:51:33;;;;;;;19.55;12.55;;;;;;;31.07;26.82;99319.94;12215204;19;20330;-80
2023/07/02 13:55:34;;;;;;;19.10;13.07;;;;;;;31.19;26.74;99321.59;12191677;19;20039;-80
2023/07/02 13:59:36;;;;;;;;;;;;;;;30.22;27.56;99323.06;12214902;19;20060;-79
2023/07/02 14:03:38;;;;;;;19.23;12.60;;;;;;;30.48;27.85;99316.34;12187128;19;19970;-79
2023/07/02 14:07:40;;;;;;;24.40;13.05;;;;;;;31.07;26.06;99333.34;12207401;19;20007;-83
2023/07/02 14:11:43;;;;;;;22.02;13.20;;;;;;;30.93;26.81;99319.88;12213372;19;20078;-78
2023/07/02 14:15:45;;;;;;;21.80;13.55;;;;;;;29.55;27.83;99314.72;12198303;19;20003;-79
2023/07/02 14:19:46;;;;;;;23.85;12.68;;;;;;;29.24;28.74;99305.44;12222857;19;20010;-79
2023/07/02 14:23:48;;;;;;;22.20;12.75;;;;;;;29.40;28.32;99314.56;12222893;19;20019;-79
2023/07/02 14:27:50;;;;;;;18.55;12.85;;;;;;;28.44;28.70;99322.63;12201189;19;20002;-80
2023/07/02 14:31:51;;;;;;;21.33;12.98;;;;;;;27.38;30.13;99311.03;12223777;19;20392;-79
2023/07/02 14:35:54;;;;;;;20.77;11.80;;;;;;;26.57;31.63;99320.25;12223631;19;20020;-79
2023/07/02 14:39:57;;;;;;;24.00;13.38;;;;;;;27.84;30.47;99316.75;12199875;19;20043;-79
2023/07/02 14:44:10;;;;;;;26.35;12.63;;;;;;;30.15;28.15;99309.59;12222259;19;20036;-81
2023/07/02 14:48:12;;;;;;;21.15;12.43;;;;;;;31.67;25.49;99306.28;12225808;19;20575;-80
2023/07/02 14:52:14;;;;;;;20.90;13.60;;;;;;;32.86;24.31;99307.84;12201728;19;20707;-80
2023/07/02 14:56:16;;;;;;;18.50;13.25;;;;;;;34.61;23.25;99300.97;12220175;19;20508;-78
2023/07/02 15:00:18;;;;;;;27.40;14.30;;;;;;;34.84;22.14;99296.66;12222203;19;20464;-79
2023/07/02 15:04:20;;;;;;;20.10;13.02;;;;;;;34.54;21.97;99303.09;12199200;19;20010;-80
2023/07/02 15:08:22;;;;;;;20.85;13.55;;;;;;;34.90;22.71;99290.00;12217879;19;20034;-80
2023/07/02 15:12:24;;;;;;;23.77;14.73;;;;;;;35.25;21.59;99302.28;12223221;19;20147;-79
2023/07/02 15:16:26;;;;;;;17.92;12.68;;;;;;;34.52;22.04;99296.97;12198811;19;20415;-79
2023/07/02 15:20:28;;;;;;;22.30;15.02;;;;;;;34.45;21.88;99295.81;12223333;19;20019;-80
2023/07/02 15:24:30;;;;;;;19.65;12.35;;;;;;;33.71;22.71;99292.34;12218004;19;20018;-80
2023/07/02 15:28:35;;;;;;;19.95;13.43;;;;;;;31.84;24.11;99301.84;12199438;19;20018;-80
2023/07/02 15:32:37;;;;;;;23.33;13.68;;;;;;;30.59;25.80;99294.50;12223017;19;20015;-78
2023/07/02 15:36:40;;;;;;;19.35;12.32;;;;;;;30.15;26.23;99294.56;12199949;19;20074;-80
2023/07/02 15:40:47;;;;;;;19.95;11.88;;;;;;;29.18;27.11;99299.31;12217114;19;20018;-79
2023/07/02 15:44:48;;;;;;;21.90;12.70;;;;;;;27.81;28.12;99298.53;12218778;19;20006;-78
2023/07/02 15:48:50;;;;;;;20.13;11.32;;;;;;;27.10;29.29;99300.78;12196667;19;20769;-79
2023/07/02 15:52:53;;;;;;;20.45;12.35;;;;;;;26.85;29.32;99299.44;12224593;19;20025;-78
2023/07/02 15:56:55;;;;;;;21.08;12.15;;;;;;;26.68;29.77;99292.22;12224125;19;20022;-78
2023/07/02 16:01:08;;;;;;;;;;;;;;;26.45;30.13;99284.44;12201442;19;19999;-79
2023/07/02 16:05:11;;;;;;;20.52;11.30;;;;;;;26.30;30.55;99282.47;12219731;19;19989;-79
2023/07/02 16:09:13;;;;;;;20.35;11.20;;;;;;;26.58;30.45;99277.47;12217491;19;20011;-78
2023/07/02 16:13:16;;;;;;;22.75;11.15;;;;;;;26.68;30.31;99287.41;12198931;19;20007;-78
2023/07/02 16:17:17;;;;;;;20.60;11.25;;;;;;;26.23;31.31;99283.09;12217862;19;21537;-78
2023/07/02 16:21:19;;;;;;;24.20;10.82;;;;;;;26.01;31.33;99280.97;12217713;19;20023;-79
2023/07/02 16:25:21;;;;;;;22.05;11.73;;;;;;;26.26;31.37;99275.91;12196790;19;20076;-80
2023/07/02 16:29:28;;;;;;;22.30;13.07;;;;;;;26.39;31.24;99285.91;12213084;19;20049;-79
2023/07/02 16:33:34;;;;;;;20.52;11.20;;;;;;;26.07;31.24;99280.31;12219876;19;20487;-79
2023/07/02 16:37:36;;;;;;;22.98;11.57;;;;;;;25.67;31.36;99278.53;12196522;19;20035;-79
2023/07/02 16:41:45;;;;;;;20.15;10.82;;;;;;;25.52;31.80;99273.69;12217447;19;20006;-79
2023/07/02 16:45:56;;;;;;;29.73;14.60;;;;;;;25.87;31.78;99265.31;12192536;19;20014;-80
2023/07/02 16:50:04;;;;;;;23.00;12.63;;;;;;;25.64;31.64;99281.22;12214830;19;20566;-80
2023/07/02 16:54:08;;;;;;;21.77;11.32;;;;;;;25.30;31.61;99291.22;12218148;19;20024;-80
2023/07/02 16:58:10;;;;;;;20.13;10.82;;;;;;;25.09;32.06;99288.59;12198346;19;20010;-79
2023/07/02 17:02:13;;;;;;;22.02;11.30;;;;;;;25.16;32.47;99288.81;12213293;19;20010;-79
2023/07/02 17:06:15;;;;;;;27.02;11.38;;;;;;;25.18;32.65;99278.81;12213423;19;20346;-79
2023/07/02 17:10:17;;;;;;;19.77;12.07;;;;;;;25.18;33.03;99287.28;12189296;19;20011;-79
2023/07/02 17:14:20;;;;;;;21.63;11.63;;;;;;;24.94;33.03;99279.72;12214887;19;20263;-80
2023/07/02 17:18:22;;;;;;;20.55;11.35;;;;;;;24.60;33.42;99297.22;12217090;19;20023;-80
2023/07/02 17:22:27;;;;;;;21.65;10.43;;;;;;;24.34;34.32;99293.63;12196876;19;20076;-79
2023/07/02 17:26:31;;;;;;;26.00;12.00;;;;;;;24.43;34.14;99284.25;12215883;19;20044;-79
2023/07/02 17:30:35;;;;;;;22.73;11.73;;;;;;;24.62;34.28;99280.78;12215384;19;20006;-79
2023/07/02 17:34:37;;;;;;;22.10;10.68;;;;;;;24.83;34.33;99284.22;12194141;19;20105;-79
2023/07/02 17:38:39;;;;;;;19.83;10.13;;;;;;;24.61;32.85;99293.25;12220615;19;20010;-80
2023/07/02 17:42:41;;;;;;;22.90;10.07;;;;;;;24.25;33.41;99283.66;12195486;19;20418;-80
2023/07/02 17:46:43;;;;;;;20.60;11.25;;;;;;;24.05;34.26;99289.06;12218436;19;20062;-81
2023/07/02 17:50:58;;;;;;;25.13;12.73;;;;;;;24.02;34.25;99286.16;12212719;19;20007;-80
2023/07/02 17:55:00;;;;;;;20.95;10.45;;;;;;;23.92;34.07;99283.81;12190869;19;20688;-82
2023/07/02 17:59:02;;;;;;;19.60;9.80;;;;;;;23.72;34.14;99289.19;12212264;19;20018;-82
2023/07/02 18:03:05;;;;;;;22.35;10.85;;;;;;;23.56;34.89;99286.22;12209271;19;20256;-81
2023/07/02 18:07:14;;;;;;;19.80;10.00;;;;;;;23.51;34.78;99285.63;12190143;19;20017;-82
2023/07/02 18:11:18;;;;;;;19.63;10.63;;;;;;;23.40;35.23;99288.88;12209103;19;20296;-81
2023/07/02 18:15:22;;;;;;;20.55;10.70;;;;;;;23.25;35.93;99283.91;12216634;19;20020;-81
2023/07/02 18:19:26;;;;;;;23.60;10.63;;;;;;;23.12;36.21;99288.69;12190126;19;20015;-82
2023/07/02 18:23:29;;;;;;;22.75;11.27;;;;;;;22.92;36.85;99293.16;12216184;19;20344;-81
2023/07/02 18:27:31;;;;;;;20.13;10.43;;;;;;;22.78;36.77;99288.97;12216948;19;20013;-82
2023/07/02 18:31:32;;;;;;;21.70;11.57;;;;;;;22.63;37.17;99299.69;12196016;19;20488;-81
2023/07/02 18:35:36;;;;;;;21.20;10.67;;;;;;;22.61;37.25;99298.41;12213347;19;20006;-81
2023/07/02 18:39:40;;;;;;;22.08;10.25;;;;;;;22.59;37.71;99303.53;12195045;19;20007;-82
2023/07/02 18:43:42;;;;;;;24.48;11.43;;;;;;;22.52;37.95;99298.47;12213497;19;20006;-81
2023/07/02 18:47:45;;;;;;;25.57;11.77;;;;;;;22.38;38.02;99293.09;12217484;19;20011;-81
2023/07/02 18:51:47;;;;;;;22.80;11.68;;;;;;;22.19;38.51;99302.00;12192389;19;20007;-80
2023/07/02 18:55:56;;;;;;;22.00;11.05;;;;;;;21.99;39.05;99299.94;12219924;19;20003;-80
2023/07/02 18:59:59;;;;;;;21.83;11.43;;;;;;;21.79;39.07;99295.91;12240679;19;20015;-80
2023/07/02 19:04:01;;;;;;;24.75;10.30;;;;;;;21.62;39.37;99302.41;12220603;19;20017;-80
2023/07/02 19:08:03;;;;;;;19.93;9.43;;;;;;;21.47;39.71;99305.75;12245080;19;20014;-80
2023/07/02 19:12:08;;;;;;;24.17;9.88;;;;;;;21.29;40.19;99302.97;12225835;19;20010;-79
2023/07/02 19:16:10;;;;;;;21.33;9.63;;;;;;;21.14;40.77;99298.72;12200320;19;20014;-80
2023/07/02 19:20:12;;;;;;;20.27;11.07;;;;;;;20.96;40.56;99299.91;12225076;19;20006;-80
2023/07/02 19:24:13;;;;;;;23.00;10.57;;;;;;;20.81;41.23;99301.25;12224594;19;20020;-80
2023/07/02 19:28:15;;;;;;;23.33;11.17;;;;;;;20.66;41.72;99307.34;12200199;19;20034;-80
2023/07/02 19:32:17;;;;;;;22.55;11.13;;;;;;;20.49;42.52;99306.16;12223650;19;20007;-80
2023/07/02 19:36:19;;;;;;;21.30;9.93;;;;;;;20.35;43.35;99315.88;12222693;19;20559;-80
2023/07/02 19:40:24;;;;;;;19.75;10.88;;;;;;;20.27;44.16;99314.69;12201308;19;20011;-80
2023/07/02 19:44:25;;;;;;;20.08;10.40;;;;;;;20.20;44.75;99315.19;12221182;19;20373;-79